X  Fermer Données météorologiques d'aviation de Metar     EHKD De Kooy Airport
Température
21°C Température
13°C Point de rosée
60% Humidité



Vent
5 M/S
12 MPH
19 KM/H
10 KTS



230°
SO
Conditions actuelles

Partiellement nuageux Partiellement nuageux
Pression 1015.92 (hPa) - 30 (inHg)
Visibilité 6 (mile) - 9.7 (km)
Aéroport
Code de l'aéroport EHKD

Emplacement: De Kooy Airport
Distance: 34 (km)

Metar:
EHKD 221025Z AUTO 23010KT 190V280 9999 FEW058 21/13 Q1016 BLU NOSIG

Temps: 22-07-2024 12:25 CEST